Impacts METAR Board
IDs:

KEWR - Newark Intl, NJ, US

Updated at: 0300 UTC 16 Aug 2018
Potential Impact None Slight Moderate High
Time 15/15Z 15/16Z 15/17Z 15/18Z 15/19Z 15/20Z 15/21Z 15/22Z 15/23Z 16/00Z 16/01Z 16/02Z 16/03Z
Temp82 85 87 88 89 90 89 88 87 85 84 83 82
Dewpt67 67 67 66 65 65 65 66 67 68 68 69 69
Altim29.92 29.91 29.92 29.92 29.91 29.90 29.90 29.91 29.91 29.93 29.94 29.97 29.97
VIS10 10 10 10 10 10 10 10 10 10 10 10 10
CIG-- -- -- -- 250 250 250 250 250 250 250 250 250
CoverFEWSCTSCTSCTBKNBKNBKNBKNBKNBKNBKNBKNBKN
FltCatVFRVFRVFRVFRVFRVFRVFRVFRVFRVFRVFRVFRVFR
WX--------------------------
WDir2902903002602902700240250240240250260
WSpd10 11 13 10 10 12 5 11 10 9 12 9 8
WGst-- -- 19 18 -- -- -- 17 -- -- -- -- --
Raw hourly METARs
KEWR 151451Z 29010KT 10SM FEW035 FEW250 28/19 A2992 RMK AO2 SLP130 T02780194 51010
KEWR 151551Z 29011KT 10SM FEW040 SCT250 29/19 A2991 RMK AO2 SLP129 T02940194
KEWR 151651Z 30013G19KT 10SM SCT042 SCT250 31/19 A2992 RMK AO2 SLP131 T03060194
KEWR 151751Z COR 26010G18KT 10SM FEW002 SCT042 SCT250 31/19 A2992 RMK AO2 FU FEW002 SLP130 T03110189 10311 20228 55000
KEWR 151851Z 29010KT 10SM SCT055 BKN250 32/18 A2991 RMK AO2 SLP128 T03170183
KEWR 151951Z 27012KT 10SM SCT055 BKN250 32/18 A2990 RMK AO2 SLP126 T03220183
KEWR 152051Z VRB05KT 10SM SCT055 BKN250 32/18 A2990 RMK AO2 SLP126 T03170183 56004
KEWR 152151Z 24011G17KT 10SM SCT055 BKN250 31/19 A2991 RMK AO2 SLP126 T03110189
KEWR 152251Z 25010KT 10SM SCT055 BKN250 31/19 A2991 RMK AO2 SLP129 T03060194
KEWR 152351Z 24009KT 10SM SCT065 SCT090 BKN250 29/20 A2993 RMK AO2 SLP135 T02940200 10322 20294 53010
KEWR 160051Z 24012KT 10SM FEW065 SCT090 BKN250 29/20 A2994 RMK AO2 SLP140 T02890200
KEWR 160151Z 25009KT 10SM FEW060 FEW100 BKN250 28/21 A2997 RMK AO2 SLP147 T02830206
KEWR 160251Z 26008KT 10SM FEW200 BKN250 28/21 A2997 RMK AO2 SLP147 T02780206 51012



Page loaded:  03:07 UTC  |   08:07 PM Pacific  |   09:07 PM Mountain  |   10:07 PM Central  |   11:07 PM Eastern

 

ADVISORIES

FORECASTS

FORECASTS

OBSERVATIONS

USER TOOLS

ABOUT US